Time;durP1;ratioP1;P1;durP2;ratioP2;P2;SDS_P1;SDS_P2;PMS_P1;PMS_P2;Temp;Humidity;BMP_temperature;BMP_pressure;BME280_temperature;BME280_humidity;BME280_pressure;Samples;Min_cycle;Max_cycle;Signal;HPM_P1;HPM_P2
2020/12/14 00:01:17;;;;;;;11.43;9.65;;;9.20;99.90;;;9.29;89.76;100312.28;5072556;28;20731;-71
2020/12/14 00:03:44;;;;;;;12.15;9.20;;;9.30;99.90;;;9.25;90.28;100381.84;5072510;28;20044;-71
2020/12/14 00:06:12;;;;;;;11.60;8.70;;;9.30;99.90;;;9.24;89.81;100316.75;5072216;28;20444;-71
2020/12/14 00:08:41;;;;;;;14.40;8.65;;;9.30;99.90;;;9.20;90.36;100317.66;5072234;28;20036;-72
2020/12/14 00:11:09;;;;;;;17.67;8.82;;;9.20;99.90;;;9.32;90.44;100308.78;5072204;28;20040;-71
2020/12/14 00:13:36;;;;;;;14.90;8.73;;;9.30;99.90;;;9.28;90.20;100323.75;5072179;28;20417;-72
2020/12/14 00:16:08;;;;;;;10.40;9.23;;;9.30;99.90;;;9.24;90.32;100347.53;5072325;28;20040;-72
2020/12/14 00:18:37;;;;;;;14.32;9.70;;;9.20;99.90;;;9.25;90.38;100300.06;5071369;28;20036;-71
2020/12/14 00:21:05;;;;;;;13.45;9.15;;;9.30;99.90;;;9.34;90.33;100310.50;5072059;28;20127;-72
2020/12/14 00:23:32;;;;;;;14.23;8.77;;;9.30;99.90;;;9.35;90.40;100309.63;5072376;28;20057;-72
2020/12/14 00:26:00;;;;;;;13.38;9.75;;;9.30;99.90;;;9.42;90.16;100311.34;5072037;28;20078;-72
2020/12/14 00:28:27;;;;;;;13.40;8.73;;;9.40;99.90;;;9.43;90.42;100334.19;5072268;28;20444;-72
2020/12/14 00:30:54;;;;;;;15.55;8.52;;;9.40;99.90;;;9.42;90.02;100306.06;5072771;28;20075;-72
2020/12/14 00:33:22;;;;;;;13.80;9.80;;;9.40;99.90;;;9.46;90.12;100322.72;5071966;28;20114;-72
2020/12/14 00:35:50;;;;;;;12.90;9.25;;;9.50;99.90;;;9.50;90.31;100309.50;5072401;28;20044;-72
2020/12/14 00:38:18;;;;;;;11.43;9.43;;;9.50;99.90;;;9.19;90.56;100265.81;5071960;28;20040;-72
2020/12/14 00:40:45;;;;;;;14.50;9.82;;;9.50;99.90;;;9.48;90.27;100313.91;5072017;28;20066;-72
2020/12/14 00:43:12;;;;;;;11.50;9.65;;;9.50;99.90;;;9.37;90.59;100302.56;5071842;28;20502;-72
2020/12/14 00:45:40;;;;;;;13.73;9.90;;;9.40;99.90;;;9.38;90.93;100314.00;5070929;28;20490;-72
2020/12/14 00:48:07;;;;;;;13.05;9.25;;;9.40;99.90;;;9.52;90.54;100313.00;5072114;28;20124;-72
2020/12/14 00:50:35;;;;;;;11.60;9.75;;;9.50;99.90;;;9.47;90.88;100304.22;5072116;28;20049;-72
2020/12/14 00:53:03;;;;;;;12.45;9.68;;;9.50;99.90;;;9.43;90.88;100317.47;5072037;28;20157;-72
2020/12/14 00:55:30;;;;;;;13.77;10.10;;;9.50;99.90;;;9.49;91.22;100289.25;5071950;28;20056;-72
2020/12/14 00:57:57;;;;;;;12.15;10.07;;;9.50;99.90;;;9.50;90.79;100282.22;5070713;28;20048;-72
2020/12/14 01:00:25;;;;;;;14.30;9.98;;;9.50;99.90;;;9.45;90.76;100273.44;5072026;28;20117;-72
2020/12/14 01:02:52;;;;;;;15.98;10.25;;;9.50;99.90;;;9.53;90.80;100312.09;5071726;28;20120;-72
2020/12/14 01:05:20;;;;;;;14.27;10.73;;;9.50;99.90;;;9.54;90.68;100284.78;5071884;28;20051;-72
2020/12/14 01:07:48;;;;;;;16.70;10.52;;;9.50;99.90;;;9.47;90.68;100264.63;5071912;28;20143;-73
2020/12/14 01:10:15;;;;;;;18.70;10.70;;;9.50;99.90;;;9.55;90.63;100265.44;5071744;28;20033;-73
2020/12/14 01:12:43;;;;;;;13.65;10.63;;;9.60;99.90;;;9.62;90.97;100282.97;5071565;28;20537;-72
2020/12/14 01:15:11;;;;;;;15.27;10.30;;;9.60;99.90;;;9.51;91.30;100299.78;5071842;28;20117;-71
2020/12/14 01:17:38;;;;;;;13.50;10.00;;;9.50;99.90;;;9.51;91.41;100292.75;5071782;28;20037;-72
2020/12/14 01:20:05;;;;;;;13.65;10.63;;;9.50;99.90;;;9.45;91.74;100276.97;5071556;28;20045;-72
2020/12/14 01:22:33;;;;;;;12.48;10.00;;;9.50;99.90;;;9.52;91.44;100301.56;5071432;28;20090;-71
2020/12/14 01:25:01;;;;;;;13.60;10.48;;;9.50;99.90;;;9.50;91.89;100296.31;5071679;28;20078;-71
2020/12/14 01:27:28;;;;;;;13.13;10.02;;;9.50;99.90;;;9.52;91.40;100288.38;5071480;28;20056;-71
2020/12/14 01:29:56;;;;;;;13.55;10.38;;;9.50;99.90;;;9.56;91.45;100290.94;5073047;28;20436;-72
2020/12/14 01:32:23;;;;;;;14.30;11.13;;;9.60;99.90;;;8.97;91.33;100179.81;5075162;28;20036;-72
2020/12/14 01:34:51;;;;;;;12.50;10.40;;;9.50;99.90;;;9.57;91.32;100292.69;5075070;28;20049;-72
2020/12/14 01:37:18;;;;;;;12.35;9.55;;;9.60;99.90;;;9.66;91.29;100287.31;5075232;28;20382;-72
2020/12/14 01:39:46;;;;;;;12.57;10.15;;;9.60;99.90;;;9.62;91.51;100296.16;5075342;28;20051;-72
2020/12/14 01:42:14;;;;;;;14.57;11.07;;;9.60;99.90;;;9.70;91.32;100301.38;5075420;28;20123;-72
2020/12/14 01:44:41;;;;;;;12.80;10.48;;;9.70;99.90;;;9.55;91.57;100291.84;5075206;28;20060;-72
2020/12/14 01:47:09;;;;;;;14.27;10.50;;;9.70;99.90;;;9.61;91.67;100283.88;5073853;28;20469;-72
2020/12/14 01:49:37;;;;;;;12.77;11.38;;;9.70;99.90;;;9.71;92.00;100296.09;5074862;28;20461;-72
2020/12/14 01:52:04;;;;;;;15.50;11.07;;;9.70;99.90;;;9.64;91.98;100289.09;5075042;28;20063;-72
2020/12/14 01:54:36;;;;;;;14.57;11.82;;;9.70;99.90;;;9.40;92.43;100228.66;5074718;28;20048;-72
2020/12/14 01:57:04;;;;;;;15.27;11.60;;;9.70;99.90;;;9.64;93.07;100280.34;5074674;28;20051;-72
2020/12/14 01:59:32;;;;;;;16.50;12.18;;;9.60;99.90;;;9.60;93.44;100294.44;5075041;28;20119;-72
2020/12/14 02:01:59;;;;;;;14.93;11.80;;;9.60;99.90;;;9.37;93.74;100260.34;5073725;28;20062;-72
2020/12/14 02:04:27;;;;;;;16.60;12.40;;;9.50;99.90;;;9.59;94.08;100280.38;5074837;28;20486;-72
2020/12/14 02:06:54;;;;;;;13.05;11.75;;;9.60;99.90;;;9.55;93.96;100293.59;5074505;28;20060;-72
2020/12/14 02:09:22;;;;;;;16.63;12.15;;;9.50;99.90;;;9.62;94.51;100298.81;5074210;28;20049;-72
2020/12/14 02:11:49;;;;;;;17.13;12.13;;;9.60;99.90;;;9.66;94.63;100279.41;5074777;28;20049;-72
2020/12/14 02:14:17;;;;;;;16.92;12.43;;;9.60;99.90;;;9.63;94.74;100274.16;5074345;28;20049;-72
2020/12/14 02:16:45;;;;;;;16.70;13.75;;;9.60;99.90;;;9.54;94.51;100300.63;5074668;28;20048;-73
2020/12/14 02:19:12;;;;;;;16.65;12.77;;;9.60;99.90;;;9.51;95.05;100258.44;5074395;28;20039;-72
2020/12/14 02:21:40;;;;;;;14.25;12.63;;;9.60;99.90;;;9.64;95.27;100306.72;5074248;28;20045;-73
2020/12/14 02:24:14;;;;;;;16.27;13.65;;;9.60;99.90;;;9.70;94.83;100288.16;5074630;28;20056;-73
2020/12/14 02:26:41;;;;;;;14.95;13.45;;;9.70;99.90;;;9.69;94.88;100271.47;5074459;28;20139;-73
2020/12/14 02:29:09;;;;;;;15.00;12.98;;;9.70;99.90;;;9.69;95.05;100266.19;5073129;28;20514;-73
2020/12/14 02:31:36;;;;;;;14.13;12.40;;;9.70;99.90;;;9.74;95.01;100276.69;5074653;28;20061;-73
2020/12/14 02:34:04;;;;;;;12.63;11.43;;;9.70;99.90;;;9.74;94.89;100272.28;5074466;28;20115;-73
2020/12/14 02:36:31;;;;;;;13.10;11.73;;;9.70;99.90;;;9.68;95.23;100269.69;5073894;28;20052;-73
2020/12/14 02:38:58;;;;;;;12.57;11.38;;;9.70;99.90;;;9.76;95.35;100259.94;5074336;28;20055;-73
2020/12/14 02:41:26;;;;;;;13.18;11.88;;;9.70;99.90;;;9.67;95.40;100272.38;5073011;28;20518;-73
2020/12/14 02:43:54;;;;;;;12.38;11.20;;;9.70;99.90;;;9.70;95.77;100270.56;5072782;28;20555;-73
2020/12/14 02:46:21;;;;;;;18.00;13.00;;;9.70;99.90;;;9.53;96.28;100261.06;5074315;28;20135;-73
2020/12/14 02:48:48;;;;;;;13.63;12.23;;;9.60;99.90;;;9.49;96.54;100254.94;5074022;28;20086;-72
2020/12/14 02:51:18;;;;;;;14.20;12.77;;;9.60;99.90;;;9.66;96.77;100249.47;5073684;28;20044;-73
2020/12/14 02:53:46;;;;;;;12.82;11.52;;;9.60;99.90;;;9.62;96.70;100250.44;5073827;28;20468;-72
2020/12/14 02:56:15;;;;;;;12.80;11.45;;;9.70;99.90;;;9.67;96.61;100265.31;5073687;28;20041;-73
2020/12/14 02:58:44;;;;;;;13.48;12.00;;;9.70;99.90;;;9.73;96.92;100267.91;5073320;28;20575;-73
2020/12/14 03:01:11;;;;;;;15.02;11.25;;;9.70;99.90;;;9.75;96.64;100271.41;5073427;28;20500;-73
2020/12/14 03:03:39;;;;;;;13.30;11.90;;;9.70;99.90;;;9.78;96.95;100268.72;5072349;28;20503;-73
2020/12/14 03:06:06;;;;;;;14.18;12.35;;;9.70;99.90;;;9.73;96.97;100265.25;5073356;28;20544;-72
2020/12/14 03:08:33;;;;;;;14.00;12.70;;;9.70;99.90;;;9.82;97.13;100244.03;5073558;28;20559;-72
2020/12/14 03:11:01;;;;;;;15.52;13.75;;;9.80;99.90;;;9.87;96.73;100249.25;5073148;28;20131;-72
2020/12/14 03:13:28;;;;;;;16.30;13.98;;;9.80;99.90;;;9.93;96.41;100265.91;5073170;28;20047;-72
2020/12/14 03:15:57;;;;;;;17.33;14.55;;;9.80;99.90;;;9.86;96.58;100280.06;5073139;28;20045;-72
2020/12/14 03:18:24;;;;;;;18.05;15.18;;;9.80;99.90;;;9.94;96.42;100232.44;5073134;28;20122;-72
2020/12/14 03:20:52;;;;;;;15.93;13.55;;;9.80;99.90;;;9.77;96.50;100234.41;5073348;28;20048;-72
2020/12/14 03:23:19;;;;;;;17.02;15.02;;;9.90;99.90;;;9.81;96.80;100241.41;5073208;28;20405;-72
2020/12/14 03:25:46;;;;;;;19.55;14.50;;;9.80;99.90;;;9.87;96.78;100242.19;5073029;28;20086;-72
2020/12/14 03:28:14;;;;;;;17.73;14.20;;;9.80;99.90;;;9.76;96.66;100225.59;5073156;28;20049;-72
2020/12/14 03:30:41;;;;;;;15.05;13.60;;;9.90;99.90;;;9.99;96.57;100257.91;5071804;28;20048;-72
2020/12/14 03:33:09;;;;;;;15.02;13.40;;;9.90;99.90;;;10.00;96.19;100254.38;5071771;28;20044;-72
2020/12/14 03:35:37;;;;;;;16.35;13.45;;;10.00;99.90;;;10.00;96.24;100235.00;5072963;28;20044;-72
2020/12/14 03:38:04;;;;;;;16.23;13.60;;;10.00;99.90;;;10.04;96.17;100239.38;5072720;28;20074;-72
2020/12/14 03:40:31;;;;;;;16.67;13.10;;;10.00;99.90;;;10.06;95.86;100219.09;5072573;28;20040;-72
2020/12/14 03:42:59;;;;;;;14.55;11.85;;;10.00;99.90;;;10.06;96.00;100250.78;5072623;28;20048;-71
2020/12/14 03:45:26;;;;;;;13.60;12.07;;;10.10;99.90;;;10.11;96.07;100234.88;5071762;28;20087;-71
2020/12/14 03:47:53;;;;;;;12.30;11.10;;;10.10;99.90;;;10.16;95.99;100243.66;5072908;28;20387;-71
2020/12/14 03:50:22;;;;;;;13.70;11.50;;;10.10;99.90;;;10.18;95.93;100228.66;5073043;28;20082;-71
2020/12/14 03:52:49;;;;;;;16.70;11.65;;;10.10;99.90;;;9.94;96.03;100208.66;5072646;28;20060;-71
2020/12/14 03:55:17;;;;;;;12.38;10.57;;;10.00;99.90;;;10.15;96.34;100212.81;5071358;28;20045;-72
2020/12/14 03:57:45;;;;;;;11.63;10.48;;;10.10;99.90;;;10.14;95.87;100211.97;5072556;28;20045;-72
2020/12/14 04:00:12;;;;;;;15.85;10.98;;;10.10;99.90;;;10.17;96.12;100251.56;5072359;28;20048;-71
2020/12/14 04:02:40;;;;;;;12.77;10.57;;;10.10;99.90;;;10.06;96.31;100236.69;5072551;28;20037;-72
2020/12/14 04:05:07;;;;;;;11.02;9.93;;;10.00;99.90;;;10.03;96.40;100203.25;5072835;28;20040;-72
2020/12/14 04:07:35;;;;;;;12.25;10.63;;;10.10;99.90;;;10.15;96.11;100199.59;5072249;28;20072;-72
2020/12/14 04:10:03;;;;;;;10.60;9.50;;;10.10;99.90;;;10.08;96.16;100225.22;5072452;28;20448;-71
2020/12/14 04:12:31;;;;;;;11.32;10.20;;;10.10;99.90;;;10.07;96.48;100241.06;5072475;28;20267;-71
2020/12/14 04:14:58;;;;;;;12.43;10.98;;;10.10;99.90;;;9.87;96.64;100176.16;5072449;28;20478;-72
2020/12/14 04:17:25;;;;;;;11.93;10.25;;;10.10;99.90;;;10.17;96.81;100209.28;5072292;28;20048;-71
2020/12/14 04:19:53;;;;;;;11.63;10.40;;;10.10;99.90;;;10.21;96.53;100220.66;5072139;28;20048;-72
2020/12/14 04:22:20;;;;;;;11.20;9.88;;;10.10;99.90;;;10.23;96.74;100213.59;5072336;28;20086;-72
2020/12/14 04:24:49;;;;;;;11.75;10.30;;;10.20;99.90;;;10.09;96.72;100179.41;5071880;28;20132;-71
2020/12/14 04:27:16;;;;;;;11.20;10.10;;;10.20;99.90;;;10.16;96.84;100201.38;5071981;28;20059;-72
2020/12/14 04:29:43;;;;;;;13.07;10.65;;;10.20;99.90;;;10.27;96.69;100187.13;5072275;28;20111;-71
2020/12/14 04:32:10;;;;;;;13.40;11.00;;;10.20;99.90;;;10.21;97.03;100194.25;5072222;28;20464;-71
2020/12/14 04:34:38;;;;;;;12.77;11.32;;;10.20;99.90;;;10.19;96.83;100177.53;5072024;28;20374;-71
2020/12/14 04:37:05;;;;;;;13.95;12.25;;;10.20;99.90;;;10.20;96.87;100203.09;5072218;28;20033;-71
2020/12/14 04:39:33;;;;;;;15.52;11.52;;;10.20;99.90;;;10.08;97.29;100166.22;5071869;28;20083;-71
2020/12/14 04:42:01;;;;;;;14.13;12.57;;;10.20;99.90;;;10.17;97.54;100181.97;5072405;28;20105;-71
2020/12/14 04:44:31;;;;;;;14.45;12.35;;;10.10;99.90;;;10.22;97.35;100198.66;5071896;28;20115;-71
2020/12/14 04:46:59;;;;;;;14.95;12.80;;;10.20;99.90;;;10.35;97.33;100192.28;5072053;28;20036;-71
2020/12/14 04:49:27;;;;;;;13.65;11.40;;;10.30;99.90;;;10.33;96.75;100199.38;5070763;28;20059;-71
2020/12/14 04:51:57;;;;;;;14.25;11.70;;;10.30;99.90;;;10.33;96.83;100181.75;5070705;28;20064;-71
2020/12/14 04:54:26;;;;;;;12.32;10.90;;;10.30;99.90;;;10.37;96.96;100214.28;5072066;28;20052;-71
2020/12/14 04:56:54;;;;;;;12.38;11.10;;;10.30;99.90;;;10.31;96.64;100178.25;5071999;28;20051;-71
2020/12/14 04:59:25;;;;;;;13.65;11.38;;;10.40;99.90;;;10.51;96.52;100214.97;5071973;28;20040;-71
2020/12/14 05:01:52;;;;;;;;;;;10.50;99.90;;;10.52;96.35;100206.13;5071175;28;20106;-71
2020/12/14 05:04:19;;;;;;;12.68;10.52;;;10.50;99.90;;;10.49;96.22;100214.13;5072737;28;19924;-71
2020/12/14 05:06:51;;;;;;;11.63;10.43;;;10.40;99.90;;;10.42;96.29;100215.09;5075663;28;20573;-79
2020/12/14 05:09:21;;;;;;;14.18;12.13;;;10.40;99.90;;;10.29;96.82;100200.31;5075883;28;20044;-77
2020/12/14 05:11:48;;;;;;;13.77;12.40;;;10.30;99.90;;;10.53;96.54;100184.09;5075354;28;20036;-77
2020/12/14 05:14:19;;;;;;;15.20;11.95;;;10.40;99.90;;;10.48;96.33;100202.66;5075673;28;20037;-75
2020/12/14 05:16:49;;;;;;;16.02;12.23;;;10.50;99.90;;;10.56;96.19;100189.31;5076251;28;20052;-76
2020/12/14 05:19:23;;;;;;;15.25;11.88;;;10.50;99.90;;;10.50;96.02;100189.41;5075468;28;20120;-79
2020/12/14 05:21:53;;;;;;;18.10;12.18;;;10.40;99.90;;;10.58;96.18;100187.53;5076134;28;20040;-80
2020/12/14 05:24:22;;;;;;;13.13;11.60;;;10.50;99.90;;;9.90;96.16;100072.25;5075546;28;20049;-76
2020/12/14 05:26:51;;;;;;;14.73;11.32;;;10.50;99.90;;;10.56;96.01;100213.13;5075231;28;20072;-78
2020/12/14 05:29:27;;;;;;;13.85;12.35;;;10.50;99.90;;;10.61;95.89;100188.34;5075176;28;20124;-78
2020/12/14 05:32:17;;;;;;;14.68;12.50;;;10.50;99.90;;;10.64;95.51;100201.53;5075452;28;20091;-78
2020/12/14 05:34:46;;;;;;;14.63;11.85;;;10.60;99.90;;;10.69;95.86;100201.44;5071842;28;20047;-78
2020/12/14 05:37:15;;;;;;;16.45;12.15;;;10.60;99.90;;;10.65;95.54;100200.63;5075224;28;20112;-78
2020/12/14 05:39:44;;;;;;;17.45;12.20;;;10.60;99.90;;;10.72;95.57;100204.06;5075126;28;20072;-78
2020/12/14 05:42:17;;;;;;;14.30;12.57;;;10.60;99.90;;;10.70;95.69;100198.78;5074788;28;20098;-80
2020/12/14 05:44:49;;;;;;;17.40;12.57;;;10.60;99.90;;;10.61;95.77;100190.13;5075219;28;20047;-79
2020/12/14 05:47:29;;;;;;;14.70;12.48;;;10.60;99.90;;;10.74;95.79;100189.03;5075148;28;20044;-79
2020/12/14 05:49:59;;;;;;;15.15;12.40;;;10.60;99.90;;;10.47;95.67;100144.53;5074875;28;20458;-79
2020/12/14 05:52:32;;;;;;;13.73;11.77;;;10.70;99.90;;;10.73;95.85;100171.41;5074764;28;20128;-79
2020/12/14 05:55:01;;;;;;;13.85;11.88;;;10.70;99.90;;;10.62;95.94;100166.31;5074821;28;20375;-80
2020/12/14 05:57:32;;;;;;;15.02;12.95;;;10.60;99.90;;;10.69;96.54;100193.53;5074611;28;20045;-77
2020/12/14 06:00:05;;;;;;;13.18;11.00;;;10.60;99.90;;;10.79;96.25;100196.00;5074615;28;20643;-76
2020/12/14 06:02:34;;;;;;;14.50;11.57;;;10.70;99.90;;;10.78;96.10;100183.66;5075235;28;20512;-78
2020/12/14 06:05:05;;;;;;;13.32;11.23;;;10.70;99.90;;;10.85;95.97;100187.09;5074851;28;20064;-78
2020/12/14 06:07:34;;;;;;;13.65;10.80;;;10.80;99.90;;;10.73;95.83;100184.63;5075093;28;20118;-78
2020/12/14 06:10:08;;;;;;;14.98;11.02;;;10.80;99.90;;;10.78;95.86;100174.88;5074445;28;20044;-79
2020/12/14 06:12:37;;;;;;;13.05;11.02;;;10.70;99.90;;;10.71;95.61;100166.16;5073452;28;20049;-78
2020/12/14 06:15:08;;;;;;;12.85;10.50;;;10.80;99.90;;;9.15;95.23;99886.84;5074578;28;20064;-78
2020/12/14 06:17:38;;;;;;;12.27;10.75;;;10.80;99.90;;;10.89;95.53;100186.16;5073253;28;20120;-78
2020/12/14 06:20:14;;;;;;;11.73;10.52;;;10.80;99.90;;;10.88;95.72;100197.59;5074365;28;20094;-79
2020/12/14 06:22:46;;;;;;;12.48;10.88;;;10.80;99.90;;;10.88;95.74;100201.13;5074314;28;20057;-79
2020/12/14 06:25:17;;;;;;;12.75;11.02;;;10.80;99.90;;;10.85;96.08;100197.69;5074691;28;20060;-80
2020/12/14 06:27:45;;;;;;;13.90;11.63;;;10.80;99.90;;;10.89;95.94;100207.31;5074500;28;20122;-80
2020/12/14 06:30:34;;;;;;;12.77;10.18;;;10.80;99.90;;;10.97;95.92;100191.31;5074340;28;20037;-79
2020/12/14 06:33:05;;;;;;;13.07;11.32;;;10.90;99.90;;;10.90;95.62;100186.13;5074446;28;20078;-79
2020/12/14 06:35:49;;;;;;;13.63;10.20;;;10.90;99.90;;;11.04;95.51;100233.50;5074230;28;20037;-78
2020/12/14 06:38:37;;;;;;;14.40;11.13;;;11.00;99.90;;;10.95;95.52;100186.03;5074635;28;20064;-80
2020/12/14 06:41:12;;;;;;;14.57;11.77;;;10.90;99.90;;;10.88;95.43;100163.22;5074426;28;20046;-79
2020/12/14 06:43:39;;;;;;;13.98;10.95;;;10.90;99.90;;;10.99;95.48;100160.41;5073953;28;20033;-80
2020/12/14 06:46:08;;;;;;;14.00;10.50;;;10.90;99.90;;;11.05;95.46;100179.69;5073050;28;20051;-79
2020/12/14 06:48:43;;;;;;;14.82;10.27;;;10.90;99.90;;;11.08;95.28;100182.28;5073725;28;20114;-79
2020/12/14 06:51:12;;;;;;;15.15;10.45;;;11.00;99.90;;;11.15;94.97;100189.19;5074110;28;20453;-79
2020/12/14 06:53:47;;;;;;;13.77;10.95;;;11.10;99.90;;;11.18;94.59;100189.16;5073944;28;20055;-80
2020/12/14 06:56:17;;;;;;;15.65;10.77;;;11.10;99.90;;;10.99;94.57;100161.28;5073746;28;20045;-80
2020/12/14 06:58:46;;;;;;;13.10;10.33;;;11.10;99.90;;;11.06;94.88;100180.56;5072553;28;20063;-80
2020/12/14 07:01:36;;;;;;;10.77;9.70;;;11.00;99.90;;;11.15;94.81;100204.22;5073776;28;20127;-80
2020/12/14 07:04:38;;;;;;;12.57;9.75;;;11.00;99.90;;;11.18;94.64;100204.16;5073611;28;20071;-81
2020/12/14 07:07:31;;;;;;;13.13;9.25;;;11.10;99.90;;;10.18;94.56;100041.88;5073280;28;20098;-80
2020/12/14 07:10:11;;;;;;;14.43;9.75;;;11.10;99.90;;;11.21;94.33;100197.03;5072226;28;20049;-81
2020/12/14 07:12:44;;;;;;;12.15;9.63;;;11.10;99.90;;;11.29;94.23;100204.84;5073579;28;20045;-81
2020/12/14 07:15:30;;;;;;;11.07;9.93;;;11.20;99.90;;;11.33;93.96;100212.72;5072279;28;20072;-81
2020/12/14 07:18:08;;;;;;;12.15;9.05;;;11.20;99.90;;;11.43;93.83;100226.66;5072165;28;20052;-80
2020/12/14 07:20:56;;;;;;;10.57;9.48;;;11.20;99.90;;;11.31;93.76;100222.44;5072143;28;20048;-81
2020/12/14 07:23:26;;;;;;;12.32;9.25;;;11.20;99.90;;;11.38;93.98;100208.19;5073087;28;20060;-81
2020/12/14 07:25:55;;;;;;;13.20;9.27;;;11.30;99.90;;;11.43;93.52;100227.53;5073272;28;20383;-82
2020/12/14 07:28:41;;;;;;;10.52;8.75;;;11.30;99.90;;;11.43;93.79;100227.53;5071526;28;20053;-81
2020/12/14 07:31:12;;;;;;;9.30;8.10;;;11.30;99.90;;;11.21;93.57;100178.50;5071875;28;20048;-81
2020/12/14 07:33:42;;;;;;;9.07;8.13;;;11.30;99.90;;;11.47;93.72;100247.75;5072890;28;20049;-83
2020/12/14 07:36:11;;;;;;;11.07;8.88;;;11.30;99.90;;;11.49;93.45;100235.38;5070691;28;20064;-82
2020/12/14 07:38:45;;;;;;;9.38;8.48;;;11.40;99.90;;;11.52;93.58;100237.94;5072486;28;20041;-81
2020/12/14 07:41:13;;;;;;;9.68;8.68;;;11.40;99.90;;;11.58;93.42;100226.34;5072815;28;20036;-81
2020/12/14 07:43:54;;;;;;;9.13;7.72;;;11.40;99.90;;;11.37;93.54;100217.06;5072748;28;20040;-81
2020/12/14 07:46:31;;;;;;;10.13;8.27;;;11.50;99.90;;;11.55;93.26;100222.03;5072624;28;20797;-82
2020/12/14 07:49:03;;;;;;;8.60;7.72;;;11.40;99.90;;;11.57;93.13;100237.88;5072768;28;20045;-81
2020/12/14 07:51:32;;;;;;;8.95;7.85;;;11.40;99.90;;;11.52;93.71;100259.13;5072606;28;20040;-82
2020/12/14 07:54:10;;;;;;;9.07;7.90;;;11.40;99.90;;;11.52;93.29;100231.78;5071459;28;20121;-81
2020/12/14 07:56:52;;;;;;;8.98;8.18;;;11.40;99.90;;;11.52;93.01;100248.53;5072477;28;20486;-81
2020/12/14 07:59:22;;;;;;;8.32;7.53;;;11.40;99.90;;;11.56;93.05;100258.19;5072671;28;20044;-82
2020/12/14 08:01:50;;;;;;;11.23;8.02;;;11.40;99.90;;;11.51;92.83;100252.09;5072642;28;20127;-81
2020/12/14 08:04:37;;;;;;;8.27;7.45;;;11.40;99.90;;;11.40;92.84;100227.56;5071289;28;20052;-82
2020/12/14 08:07:05;;;;;;;10.50;8.55;;;11.40;99.90;;;11.57;92.69;100267.88;5072640;28;20056;-82
2020/12/14 08:09:34;;;;;;;8.88;7.97;;;11.40;99.90;;;11.54;92.56;100267.03;5072178;28;20049;-83
2020/12/14 08:12:03;;;;;;;9.60;7.75;;;11.40;99.90;;;11.56;92.58;100258.19;5072094;28;20061;-83
2020/12/14 08:14:32;;;;;;;8.88;8.00;;;11.40;99.90;;;11.57;92.63;100274.94;5072443;28;20123;-83
2020/12/14 08:17:00;;;;;;;9.48;8.65;;;11.40;99.90;;;11.42;92.71;100249.59;5072034;28;20048;-83
2020/12/14 08:19:36;;;;;;;9.45;8.55;;;11.40;99.90;;;11.50;92.79;100250.34;5072485;28;20127;-83
2020/12/14 08:22:07;;;;;;;8.30;7.50;;;11.40;99.90;;;11.51;92.68;100262.69;5072046;28;20547;-83
2020/12/14 08:24:37;;;;;;;8.45;7.65;;;11.50;99.90;;;11.64;92.75;100269.50;5072381;28;20064;-82
2020/12/14 08:27:07;;;;;;;10.07;8.35;;;11.50;99.90;;;11.58;92.76;100274.91;5072283;28;20044;-83
2020/12/14 08:29:37;;;;;;;9.80;8.38;;;11.50;99.90;;;11.63;92.84;100283.63;5071198;28;20076;-83
2020/12/14 08:32:04;;;;;;;8.60;7.50;;;11.50;99.90;;;11.35;92.63;100228.56;5071935;28;20060;-83
2020/12/14 08:34:37;;;;;;;9.07;7.35;;;11.60;99.90;;;11.72;92.21;100280.00;5072503;28;20045;-83
2020/12/14 08:37:06;;;;;;;8.13;7.20;;;11.60;99.90;;;11.02;91.91;100161.22;5071854;28;20037;-84
2020/12/14 08:39:34;;;;;;;7.93;6.32;;;11.60;99.90;;;11.64;92.12;100266.88;5071121;28;20120;-83
2020/12/14 08:42:10;;;;;;;7.93;6.22;;;11.60;99.90;;;11.79;92.31;100285.16;5071723;28;20113;-82
2020/12/14 08:44:39;;;;;;;10.95;6.97;;;11.70;99.90;;;11.87;91.91;100279.69;5071954;28;20041;-83
2020/12/14 08:47:15;;;;;;;8.32;7.00;;;11.70;99.90;;;11.85;92.03;100283.28;5072170;28;20436;-82
2020/12/14 08:49:43;;;;;;;8.35;6.97;;;11.80;99.90;;;11.25;91.96;100174.03;5072384;28;20056;-82
2020/12/14 08:52:20;;;;;;;7.40;6.70;;;11.70;99.90;;;11.92;91.77;100276.97;5071853;28;20036;-84
2020/12/14 08:54:56;;;;;;;8.80;6.93;;;11.80;99.90;;;11.88;91.61;100284.13;5072170;28;20059;-84
2020/12/14 08:57:26;;;;;;;7.72;6.68;;;11.70;99.90;;;11.69;91.33;100283.56;5071696;28;20077;-84
2020/12/14 09:00:09;;;;;;;7.35;6.65;;;11.70;99.90;;;11.83;91.74;100280.66;5071869;28;20157;-84
2020/12/14 09:02:37;;;;;;;7.68;6.40;;;11.70;99.90;;;11.89;91.68;100282.31;5072079;28;20036;-83
2020/12/14 09:05:15;;;;;;;8.15;6.72;;;11.80;99.90;;;11.95;91.38;100298.97;5070628;28;20045;-84
2020/12/14 09:07:44;;;;;;;7.55;6.70;;;11.80;99.90;;;12.18;91.40;100306.47;5070741;28;20048;-84
2020/12/14 09:10:22;;;;;;;8.38;7.57;;;12.00;99.90;;;12.27;90.92;100319.56;5071760;28;20115;-84
2020/12/14 09:12:50;;;;;;;8.43;6.82;;;12.10;99.90;;;12.72;90.70;100323.88;5070654;28;20063;-82
2020/12/14 09:15:36;;;;;;;7.65;6.38;;;12.50;99.90;;;13.12;88.57;100326.56;5071857;28;20052;-84
2020/12/14 09:18:05;;;;;;;6.35;5.78;;;12.90;99.90;;;13.17;86.85;100337.94;5071401;28;20090;-84
2020/12/14 09:20:34;;;;;;;6.85;5.90;;;13.10;99.90;;;12.99;86.09;100323.28;5070383;28;20052;-84
2020/12/14 09:23:02;;;;;;;7.72;6.03;;;13.00;99.90;;;13.00;86.18;100340.97;5071678;28;20048;-84
2020/12/14 09:25:30;;;;;;;9.13;6.07;;;12.90;99.90;;;12.65;86.52;100319.63;5071824;28;20051;-82
2020/12/14 09:27:57;;;;;;;8.50;6.22;;;12.70;99.90;;;12.76;86.72;100360.06;5071435;28;20390;-84
2020/12/14 09:30:24;;;;;;;6.78;5.85;;;12.60;99.90;;;12.79;86.95;100356.50;5071486;28;20063;-82
2020/12/14 09:32:52;;;;;;;6.30;5.68;;;12.60;99.90;;;12.66;86.92;100355.88;5071439;28;20045;-82
2020/12/14 09:35:20;;;;;;;8.10;6.05;;;12.60;99.90;;;12.77;87.25;100364.50;5071195;28;20490;-82
2020/12/14 09:37:47;;;;;;;6.20;5.53;;;12.60;99.90;;;13.02;86.83;100363.06;5071448;28;20047;-82
2020/12/14 09:40:16;;;;;;;6.57;5.97;;;12.80;99.90;;;13.08;86.29;100354.97;5071390;28;20090;-81
2020/12/14 09:42:43;;;;;;;7.07;4.88;;;13.00;99.90;;;13.32;85.77;100372.09;5071242;28;20580;-80
2020/12/14 09:45:12;;;;;;;6.13;5.50;;;13.10;99.90;;;13.58;84.73;100352.00;5071496;28;20071;-82
2020/12/14 09:47:40;;;;;;;7.15;5.72;;;13.40;99.90;;;13.61;83.56;100372.28;5071637;28;20072;-80
2020/12/14 09:50:08;;;;;;;6.13;5.10;;;13.50;99.90;;;13.74;83.17;100346.28;5071609;28;20501;-81
2020/12/14 09:52:35;;;;;;;6.55;5.45;;;13.60;99.90;;;14.05;82.19;100372.00;5073677;28;20044;-81
2020/12/14 09:55:03;;;;;;;5.78;5.22;;;13.90;99.90;;;14.16;81.16;100366.41;5074682;28;20040;-80
2020/12/14 09:57:32;;;;;;;5.68;4.43;;;14.00;99.90;;;14.45;80.51;100377.16;5074912;28;20127;-82
2020/12/14 09:59:59;;;;;;;5.85;5.18;;;14.30;99.90;;;14.27;79.30;100327.09;5074800;28;20047;-81
2020/12/14 10:02:27;;;;;;;5.10;4.65;;;14.40;99.90;;;14.75;79.13;100389.59;5074867;28;20098;-81
2020/12/14 10:05:09;;;;;;;6.45;5.80;;;14.50;99.90;;;14.96;77.74;100362.31;5074850;28;20051;-80
2020/12/14 10:07:41;;;;;;;7.82;5.45;;;14.80;99.90;;;14.94;76.65;100380.13;5074433;28;20515;-80
2020/12/14 10:10:09;;;;;;;6.57;4.78;;;14.90;99.90;;;14.93;76.72;100370.41;5073332;28;20049;-80
2020/12/14 10:12:40;;;;;;;6.43;4.95;;;14.80;99.90;;;15.09;76.52;100377.03;5074967;28;20056;-80
2020/12/14 10:15:09;;;;;;;5.95;5.35;;;14.90;99.90;;;14.94;76.50;100344.66;5074356;28;20051;-80
2020/12/14 10:17:36;;;;;;;6.60;5.00;;;14.90;99.90;;;15.20;75.41;100366.91;5074503;28;20037;-80
2020/12/14 10:20:05;;;;;;;7.13;4.53;;;15.20;99.90;;;15.34;75.50;100395.78;5074051;28;20052;-80